BENGL51 KNBC-KNIP
Flight info
| Callsign | BENGL51 |
|---|---|
| Flight time | N/A |
| Altitude | 28000 |
| Route | SAV NIP |
| Aircraft | VF35/M-SDFIRY/LB1 |
Departure
| Time | N/A |
|---|---|
| Airport | Beaufort MCAS - Merritt Field (KNBC) |
Arrival
| Time | 2026-04-23 21:39 |
|---|---|
| Airport | Jacksonville Naval Air Station (Towers Field) (KNIP) |
| Time | Latitude | Longitude | Altitude | Speed | Heading |
|---|---|---|---|---|---|
| 2026-04-23 21:21 | 30.21486 | -82.88740 | 15078 ft | 620 kts | 88° |
| 2026-04-23 21:21 | 30.21586 | -82.83758 | 15079 ft | 620 kts | 89° |
| 2026-04-23 21:22 | 30.21682 | -82.78837 | 15075 ft | 620 kts | 88° |
| 2026-04-23 21:22 | 30.21777 | -82.73850 | 15072 ft | 620 kts | 88° |
| 2026-04-23 21:22 | 30.21872 | -82.68863 | 15058 ft | 621 kts | 88° |
| 2026-04-23 21:22 | 30.21964 | -82.63873 | 15057 ft | 621 kts | 88° |
| 2026-04-23 21:23 | 30.22054 | -82.58885 | 15060 ft | 621 kts | 88° |
| 2026-04-23 21:23 | 30.22143 | -82.53888 | 15055 ft | 621 kts | 88° |
| 2026-04-23 21:23 | 30.22228 | -82.48898 | 15151 ft | 621 kts | 89° |
| 2026-04-23 21:23 | 30.22312 | -82.43977 | 15150 ft | 621 kts | 89° |
| 2026-04-23 21:24 | 30.22395 | -82.38983 | 15163 ft | 620 kts | 89° |
| 2026-04-23 21:24 | 30.22475 | -82.34003 | 14881 ft | 622 kts | 88° |
| 2026-04-23 21:24 | 30.22555 | -82.28990 | 14149 ft | 624 kts | 88° |
| 2026-04-23 21:24 | 30.22632 | -82.23972 | 13360 ft | 626 kts | 88° |
| 2026-04-23 21:25 | 30.22709 | -82.18939 | 12560 ft | 626 kts | 89° |
| 2026-04-23 21:25 | 30.22782 | -82.13906 | 11800 ft | 626 kts | 89° |
| 2026-04-23 21:25 | 30.22854 | -82.08867 | 11060 ft | 626 kts | 89° |
| 2026-04-23 21:25 | 30.22923 | -82.03901 | 10343 ft | 627 kts | 89° |
| 2026-04-23 21:26 | 30.22990 | -81.98861 | 9585 ft | 628 kts | 89° |
| 2026-04-23 21:26 | 30.23058 | -81.93805 | 8814 ft | 629 kts | 89° |
| 2026-04-23 21:26 | 30.23121 | -81.88739 | 8075 ft | 631 kts | 89° |
| 2026-04-23 21:26 | 30.23182 | -81.83660 | 7465 ft | 632 kts | 90° |
| 2026-04-23 21:27 | 30.23158 | -81.78560 | 5848 ft | 639 kts | 91° |
| 2026-04-23 21:27 | 30.23158 | -81.73451 | 4535 ft | 636 kts | 90° |
| 2026-04-23 21:27 | 30.23180 | -81.68561 | 2581 ft | 555 kts | 91° |
| 2026-04-23 21:27 | 30.24987 | -81.66649 | 2085 ft | 391 kts | 309° |
| 2026-04-23 21:28 | 30.25366 | -81.69282 | 2249 ft | 316 kts | 275° |
| 2026-04-23 21:28 | 30.25543 | -81.71482 | 2213 ft | 231 kts | 273° |
| 2026-04-23 21:28 | 30.25661 | -81.73061 | 2088 ft | 177 kts | 272° |
| 2026-04-23 21:28 | 30.25774 | -81.74460 | 2061 ft | 173 kts | 274° |
| 2026-04-23 21:29 | 30.25439 | -81.75716 | 2080 ft | 169 kts | 214° |
| 2026-04-23 21:29 | 30.24332 | -81.75831 | 2089 ft | 169 kts | 153° |
| 2026-04-23 21:29 | 30.23500 | -81.74923 | 2026 ft | 167 kts | 120° |
| 2026-04-23 21:29 | 30.23138 | -81.73649 | 1694 ft | 170 kts | 98° |
| 2026-04-23 21:30 | 30.23141 | -81.72312 | 1273 ft | 167 kts | 90° |
| 2026-04-23 21:30 | 30.23157 | -81.70977 | 807 ft | 165 kts | 92° |
| 2026-04-23 21:30 | 30.23158 | -81.69645 | 293 ft | 166 kts | 91° |
| 2026-04-23 21:30 | 30.23164 | -81.68361 | 35 ft | 144 kts | 91° |
| 2026-04-23 21:31 | 30.23166 | -81.67448 | 31 ft | 87 kts | 90° |
| 2026-04-23 21:31 | 30.23170 | -81.66153 | 506 ft | 230 kts | 91° |
| 2026-04-23 21:31 | 30.24149 | -81.64848 | 1257 ft | 252 kts | 352° |
| 2026-04-23 21:31 | 30.25041 | -81.66347 | 1371 ft | 255 kts | 273° |
| 2026-04-23 21:32 | 30.25190 | -81.68392 | 1400 ft | 254 kts | 273° |
| 2026-04-23 21:32 | 30.25326 | -81.70399 | 1715 ft | 233 kts | 272° |
| 2026-04-23 21:32 | 30.25449 | -81.72304 | 1876 ft | 245 kts | 272° |
| 2026-04-23 21:32 | 30.25562 | -81.74258 | 1899 ft | 237 kts | 272° |
| 2026-04-23 21:33 | 30.25527 | -81.76089 | 2045 ft | 225 kts | 248° |
| 2026-04-23 21:33 | 30.24512 | -81.77065 | 2074 ft | 193 kts | 175° |
| 2026-04-23 21:33 | 30.23578 | -81.76164 | 2042 ft | 175 kts | 115° |
| 2026-04-23 21:33 | 30.23285 | -81.74862 | 1622 ft | 168 kts | 99° |
| 2026-04-23 21:34 | 30.23189 | -81.73526 | 1300 ft | 165 kts | 93° |
| 2026-04-23 21:34 | 30.23184 | -81.72203 | 932 ft | 163 kts | 92° |
| 2026-04-23 21:34 | 30.23174 | -81.70916 | 570 ft | 158 kts | 94° |
| 2026-04-23 21:34 | 30.23158 | -81.69667 | 226 ft | 151 kts | 92° |
| 2026-04-23 21:35 | 30.23163 | -81.68503 | 28 ft | 132 kts | 91° |
| 2026-04-23 21:35 | 30.23168 | -81.67629 | 27 ft | 110 kts | 90° |
| 2026-04-23 21:35 | 30.23170 | -81.66088 | 473 ft | 250 kts | 90° |
| 2026-04-23 21:35 | 30.23243 | -81.64254 | 1485 ft | 224 kts | 64° |
| 2026-04-23 21:36 | 30.25224 | -81.65961 | 1688 ft | 254 kts | 270° |
| 2026-04-23 21:36 | 30.25278 | -81.67921 | 1790 ft | 236 kts | 269° |
| 2026-04-23 21:36 | 30.25333 | -81.69816 | 1823 ft | 238 kts | 269° |
| 2026-04-23 21:37 | 30.25391 | -81.71669 | 1795 ft | 217 kts | 270° |
| 2026-04-23 21:37 | 30.25289 | -81.73432 | 1771 ft | 219 kts | 242° |
| 2026-04-23 21:37 | 30.24171 | -81.74190 | 1695 ft | 192 kts | 165° |
| 2026-04-23 21:37 | 30.23318 | -81.73175 | 1427 ft | 185 kts | 106° |
| 2026-04-23 21:38 | 30.23185 | -81.71769 | 932 ft | 174 kts | 94° |
| 2026-04-23 21:38 | 30.23167 | -81.70411 | 479 ft | 160 kts | 93° |
| 2026-04-23 21:38 | 30.23161 | -81.69168 | 116 ft | 152 kts | 91° |
| 2026-04-23 21:38 | 30.23162 | -81.68067 | 24 ft | 109 kts | 91° |
| 2026-04-23 21:39 | 30.23160 | -81.67556 | 28 ft | 28 kts | 95° |
| 2026-04-23 21:39 | 30.23048 | -81.67484 | 28 ft | 20 kts | 179° |
| 2026-04-23 21:39 | 30.23022 | -81.67568 | 28 ft | 12 kts | 269° |
| 2026-04-23 21:39 | 30.22992 | -81.67594 | 28 ft | 0 kts | 179° |